createdAt,value
2019-03-28T00:01:07.826Z,99733.15
2019-03-28T00:03:40.210Z,99729.72
2019-03-28T00:06:12.621Z,99729.27
2019-03-28T00:08:45.265Z,99725.07
2019-03-28T00:11:17.665Z,99722.58
2019-03-28T00:13:50.020Z,99720.03
2019-03-28T00:16:23.198Z,99723.55
2019-03-28T00:18:57.539Z,99717.66
2019-03-28T00:21:30.059Z,99722.00
2019-03-28T00:24:21.318Z,99726.45
2019-03-28T00:26:53.791Z,99723.89
2019-03-28T00:29:26.462Z,99713.52
2019-03-28T00:31:58.923Z,99726.48
2019-03-28T00:34:31.275Z,99729.52
2019-03-28T00:37:03.648Z,99732.49
2019-03-28T00:39:36.295Z,99726.09
2019-03-28T00:42:08.664Z,99727.02
2019-03-28T00:44:41.383Z,99723.72
2019-03-28T00:47:13.766Z,99722.94
2019-03-28T00:49:46.406Z,99724.11
2019-03-28T00:52:18.802Z,99722.97
2019-03-28T00:54:51.311Z,99731.26
2019-03-28T00:57:23.735Z,99721.77
2019-03-28T00:59:56.109Z,99719.75
2019-03-28T01:02:28.489Z,99723.20
2019-03-28T01:05:00.880Z,99723.69
2019-03-28T01:07:33.349Z,99724.55
2019-03-28T01:10:06.289Z,99731.97
2019-03-28T01:12:38.954Z,99728.85
2019-03-28T01:15:11.374Z,99724.05
2019-03-28T01:17:44.086Z,99719.00
2019-03-28T01:20:16.398Z,99722.62
2019-03-28T01:22:48.997Z,99723.13
2019-03-28T01:25:21.314Z,99712.91
2019-03-28T01:27:53.628Z,99715.95
2019-03-28T01:30:26.229Z,99710.86
2019-03-28T01:32:58.845Z,99715.19
2019-03-28T01:35:31.455Z,99712.16
2019-03-28T01:38:04.039Z,99707.86
2019-03-28T01:40:36.634Z,99703.48
2019-03-28T01:43:09.282Z,99699.55
2019-03-28T01:45:41.854Z,99699.13
2019-03-28T01:48:14.480Z,99696.46
2019-03-28T01:50:47.186Z,99694.27
2019-03-28T01:53:19.863Z,99697.33
2019-03-28T01:55:52.214Z,99700.03
2019-03-28T01:58:24.822Z,99704.33
2019-03-28T02:00:57.221Z,99701.29
2019-03-28T02:03:29.871Z,99700.84
2019-03-28T02:06:02.469Z,99703.36
2019-03-28T02:08:35.092Z,99709.80
2019-03-28T02:11:07.842Z,99708.50
2019-03-28T02:13:40.602Z,99702.19
2019-03-28T02:16:12.963Z,99700.51
2019-03-28T02:18:45.363Z,99700.95
2019-03-28T02:21:18.005Z,99704.02
2019-03-28T02:23:50.408Z,99696.97
2019-03-28T02:26:23.075Z,99703.09
2019-03-28T02:28:55.446Z,99706.48
2019-03-28T02:31:28.116Z,99707.66
2019-03-28T02:34:00.515Z,99707.94
2019-03-28T02:36:33.225Z,99707.60
2019-03-28T02:39:07.838Z,99710.22
2019-03-28T02:41:41.428Z,99710.61
2019-03-28T02:44:14.068Z,99706.68
2019-03-28T02:46:46.724Z,99705.50
2019-03-28T02:49:20.206Z,99711.98
2019-03-28T02:51:52.547Z,99703.42
2019-03-28T02:54:25.181Z,99700.84
2019-03-28T02:56:57.571Z,99703.84
2019-03-28T02:59:31.289Z,99699.55
2019-03-28T03:02:03.945Z,99693.54
2019-03-28T03:04:36.407Z,99695.14
2019-03-28T03:07:08.795Z,99702.44
2019-03-28T03:09:41.173Z,99697.36
2019-03-28T03:12:13.536Z,99700.45
2019-03-28T03:14:45.990Z,99704.37
2019-03-28T03:17:18.667Z,99698.34
2019-03-28T03:19:51.491Z,99698.91
2019-03-28T03:22:24.304Z,99700.92
2019-03-28T03:24:56.929Z,99705.28
2019-03-28T03:27:29.321Z,99705.22
2019-03-28T03:30:03.612Z,99712.13
2019-03-28T03:32:35.785Z,99709.52
2019-03-28T03:35:08.886Z,99713.42
2019-03-28T03:37:41.533Z,99711.59
2019-03-28T03:40:15.738Z,99708.64
2019-03-28T03:42:48.401Z,99707.41
2019-03-28T03:45:21.034Z,99701.06
2019-03-28T03:47:53.701Z,99698.93
2019-03-28T03:50:30.761Z,99695.51
2019-03-28T03:53:03.521Z,99696.41
2019-03-28T03:55:36.179Z,99698.98
2019-03-28T03:58:16.045Z,99695.98
2019-03-28T04:00:43.710Z,99696.48
2019-03-28T04:03:16.156Z,99697.33
2019-03-28T04:05:48.564Z,99695.22
2019-03-28T04:08:20.952Z,99696.01
2019-03-28T04:10:53.491Z,99694.77
2019-03-28T04:13:26.000Z,99697.44
2019-03-28T04:15:58.391Z,99693.57
2019-03-28T04:18:30.782Z,99693.20
2019-03-28T04:21:03.165Z,99701.76
2019-03-28T04:23:35.533Z,99703.10
2019-03-28T04:26:08.202Z,99703.61
2019-03-28T04:28:40.596Z,99705.38
2019-03-28T04:31:13.279Z,99712.24
2019-03-28T04:33:45.901Z,99710.16
2019-03-28T04:36:18.540Z,99710.66
2019-03-28T04:38:51.168Z,99705.13
2019-03-28T04:41:23.840Z,99709.89
2019-03-28T04:43:56.493Z,99712.47
2019-03-28T04:46:30.327Z,99710.69
2019-03-28T04:49:02.955Z,99712.03
2019-03-28T04:51:35.615Z,99713.22
2019-03-28T04:54:09.806Z,99720.61
2019-03-28T04:56:42.679Z,99717.61
2019-03-28T04:59:15.460Z,99717.63
2019-03-28T05:02:01.019Z,99719.05
2019-03-28T05:04:22.721Z,99723.12
2019-03-28T05:06:55.459Z,99723.02
2019-03-28T05:09:28.100Z,99726.02
2019-03-28T05:12:00.741Z,99733.42
2019-03-28T05:14:33.410Z,99736.81
2019-03-28T05:17:06.076Z,99741.18
2019-03-28T05:19:38.714Z,99741.05
2019-03-28T05:22:11.109Z,99740.64
2019-03-28T05:24:43.471Z,99738.11
2019-03-28T05:27:16.730Z,99741.23
2019-03-28T05:29:49.446Z,99742.52
2019-03-28T05:32:22.130Z,99741.18
2019-03-28T05:34:54.511Z,99747.11
2019-03-28T05:37:26.895Z,99743.52
2019-03-28T05:39:59.556Z,99741.86
2019-03-28T05:42:32.275Z,99749.98
2019-03-28T05:45:05.039Z,99755.93
2019-03-28T05:47:37.729Z,99762.77
2019-03-28T05:50:10.590Z,99761.84
2019-03-28T05:52:43.253Z,99766.90
2019-03-28T05:55:15.871Z,99762.09
2019-03-28T05:57:48.534Z,99764.93
2019-03-28T06:00:21.198Z,99770.08
2019-03-28T06:02:54.852Z,99771.53
2019-03-28T06:05:27.263Z,99771.75
2019-03-28T06:07:59.665Z,99769.39
2019-03-28T06:10:32.026Z,99769.62
2019-03-28T06:13:04.425Z,99778.59
2019-03-28T06:15:36.842Z,99776.67
2019-03-28T06:18:09.235Z,99776.64
2019-03-28T06:20:41.904Z,99779.23
2019-03-28T06:23:14.354Z,99783.48
2019-03-28T06:25:46.733Z,99785.00
2019-03-28T06:28:19.137Z,99782.69
2019-03-28T06:30:51.541Z,99776.61
2019-03-28T06:33:23.951Z,99781.61
2019-03-28T06:35:56.337Z,99772.38
2019-03-28T06:38:28.852Z,99776.09
2019-03-28T06:41:01.214Z,99786.41
2019-03-28T06:43:33.856Z,99782.47
2019-03-28T06:46:06.218Z,99782.70
2019-03-28T06:48:38.637Z,99781.62
2019-03-28T06:51:11.014Z,99778.86
2019-03-28T06:53:43.411Z,99774.63
2019-03-28T06:56:15.801Z,99775.48
2019-03-28T06:58:48.151Z,99782.69
2019-03-28T07:01:20.577Z,99774.98
2019-03-28T07:03:53.014Z,99777.70
2019-03-28T07:06:25.412Z,99774.24
2019-03-28T07:08:57.829Z,99774.84
2019-03-28T07:11:30.318Z,99777.84
2019-03-28T07:14:02.698Z,99770.44
2019-03-28T07:16:35.109Z,99764.61
2019-03-28T07:19:07.521Z,99769.67
2019-03-28T07:21:39.900Z,99761.19
2019-03-28T07:24:12.280Z,99762.25
2019-03-28T07:26:44.676Z,99767.31
2019-03-28T07:29:18.145Z,99759.23
2019-03-28T07:31:50.557Z,99766.69
2019-03-28T07:34:22.933Z,99761.46
2019-03-28T07:36:55.335Z,99763.03
2019-03-28T07:39:27.728Z,99763.04
2019-03-28T07:42:00.157Z,99768.76
2019-03-28T07:44:32.548Z,99772.30
2019-03-28T07:47:04.952Z,99778.33
2019-03-28T07:49:37.810Z,99769.74
2019-03-28T07:52:10.211Z,99767.55
2019-03-28T07:54:42.607Z,99763.78
2019-03-28T07:57:16.068Z,99768.06
2019-03-28T07:59:48.474Z,99761.62
2019-03-28T08:02:20.867Z,99765.66
2019-03-28T08:04:53.289Z,99765.59
2019-03-28T08:07:25.658Z,99761.33
2019-03-28T08:09:58.074Z,99756.96
2019-03-28T08:12:30.713Z,99755.75
2019-03-28T08:15:03.350Z,99756.38
2019-03-28T08:17:35.775Z,99751.82
2019-03-28T08:20:10.726Z,99759.27
2019-03-28T08:22:43.116Z,99757.22
2019-03-28T08:25:17.025Z,99751.65
2019-03-28T08:27:49.531Z,99750.30
2019-03-28T08:30:34.912Z,99751.73
2019-03-28T08:33:08.160Z,99756.24
2019-03-28T08:35:40.905Z,99752.13
2019-03-28T08:38:13.436Z,99754.38
2019-03-28T08:40:46.460Z,99743.48
2019-03-28T08:43:18.883Z,99745.89
2019-03-28T08:45:51.483Z,99752.17
2019-03-28T08:48:25.856Z,99754.86
2019-03-28T08:50:58.350Z,99743.61
2019-03-28T08:53:30.819Z,99750.47
2019-03-28T08:56:03.333Z,99740.69
2019-03-28T08:58:38.185Z,99741.23
2019-03-28T09:01:09.976Z,99744.70
2019-03-28T09:03:42.577Z,99752.14
2019-03-28T09:06:17.075Z,99747.58
2019-03-28T09:08:49.170Z,99749.45
2019-03-28T09:11:21.731Z,99752.80
2019-03-28T09:13:54.144Z,99753.86
2019-03-28T09:16:27.564Z,99745.70
2019-03-28T09:18:59.998Z,99746.59
2019-03-28T09:21:33.461Z,99741.35
2019-03-28T09:24:05.933Z,99742.67
2019-03-28T09:26:38.304Z,99742.77
2019-03-28T09:29:10.837Z,99732.70
2019-03-28T09:31:43.439Z,99743.16
2019-03-28T09:34:15.839Z,99739.00
2019-03-28T09:36:48.200Z,99736.11
2019-03-28T09:39:20.576Z,99734.30
2019-03-28T09:41:52.975Z,99739.06
2019-03-28T09:44:25.364Z,99726.86
2019-03-28T09:46:57.766Z,99729.67
2019-03-28T09:49:30.281Z,99736.42
2019-03-28T09:52:02.664Z,99728.37
2019-03-28T09:54:35.078Z,99731.76
2019-03-28T09:57:07.517Z,99733.34
2019-03-28T09:59:39.905Z,99721.59
2019-03-28T10:02:12.286Z,99733.83
2019-03-28T10:04:44.782Z,99723.48
2019-03-28T10:07:17.172Z,99725.30
2019-03-28T10:09:49.570Z,99719.34
2019-03-28T10:12:23.027Z,99722.58
2019-03-28T10:14:55.683Z,99712.91
2019-03-28T10:17:28.079Z,99703.83
2019-03-28T10:20:00.464Z,99704.77
2019-03-28T10:22:32.855Z,99708.06
2019-03-28T10:25:07.243Z,99707.59
2019-03-28T10:27:39.783Z,99707.66
2019-03-28T10:30:13.386Z,99707.88
2019-03-28T10:32:46.019Z,99702.78
2019-03-28T10:35:31.038Z,99698.31
2019-03-28T10:38:03.473Z,99703.91
2019-03-28T10:40:36.469Z,99697.91
2019-03-28T10:43:09.979Z,99702.59
2019-03-28T10:45:42.352Z,99704.70
2019-03-28T10:48:14.765Z,99705.73
2019-03-28T10:50:47.160Z,99698.53
2019-03-28T10:53:19.852Z,99708.91
2019-03-28T10:55:52.270Z,99700.56
2019-03-28T10:58:24.747Z,99706.34
2019-03-28T11:00:57.618Z,99700.16
2019-03-28T11:03:30.324Z,99693.75
2019-03-28T11:06:02.988Z,99686.60
2019-03-28T11:08:36.673Z,99692.04
2019-03-28T11:11:09.240Z,99689.46
2019-03-28T11:13:41.634Z,99691.44
2019-03-28T11:16:15.236Z,99688.80
2019-03-28T11:18:47.930Z,99681.81
2019-03-28T11:21:20.594Z,99676.95
2019-03-28T11:23:52.991Z,99676.88
2019-03-28T11:26:25.529Z,99672.51
2019-03-28T11:29:00.839Z,99666.95
2019-03-28T11:31:45.765Z,99674.59
2019-03-28T11:34:07.259Z,99657.78
2019-03-28T11:36:39.671Z,99661.38
2019-03-28T11:39:30.893Z,99664.64
2019-03-28T11:42:03.294Z,99668.17
2019-03-28T11:44:35.906Z,99665.63
2019-03-28T11:47:08.317Z,99666.22
2019-03-28T11:49:40.844Z,99663.73
2019-03-28T11:52:13.214Z,99656.92
2019-03-28T11:54:45.925Z,99667.59
2019-03-28T11:57:18.306Z,99665.54
2019-03-28T11:59:50.980Z,99670.70
2019-03-28T12:02:25.293Z,99669.75
2019-03-28T12:04:57.865Z,99662.69
2019-03-28T12:07:30.289Z,99658.87
2019-03-28T12:10:02.715Z,99659.88
2019-03-28T12:12:35.115Z,99657.33
2019-03-28T12:15:08.555Z,99653.05
2019-03-28T12:17:40.954Z,99651.51
2019-03-28T12:20:14.868Z,99649.70
2019-03-28T12:22:47.259Z,99649.59
2019-03-28T12:25:19.650Z,99649.20
2019-03-28T12:27:52.018Z,99656.50
2019-03-28T12:30:25.150Z,99649.89
2019-03-28T12:32:57.543Z,99651.80
2019-03-28T12:35:29.966Z,99648.34
2019-03-28T12:38:02.716Z,99650.20
2019-03-28T12:40:35.614Z,99647.67
2019-03-28T12:43:08.000Z,99648.98
2019-03-28T12:45:40.421Z,99646.55
2019-03-28T12:48:12.805Z,99648.05
2019-03-28T12:50:58.062Z,99647.72
2019-03-28T12:53:19.268Z,99641.66
2019-03-28T12:55:51.692Z,99646.23
2019-03-28T12:58:24.120Z,99648.52
2019-03-28T13:00:56.826Z,99643.43
2019-03-28T13:03:34.785Z,99641.92
2019-03-28T13:06:03.401Z,99645.29
2019-03-28T13:08:35.843Z,99638.95
2019-03-28T13:11:08.369Z,99634.41
2019-03-28T13:13:40.753Z,99640.83
2019-03-28T13:16:14.139Z,99630.98
2019-03-28T13:18:46.538Z,99633.09
2019-03-28T13:21:18.997Z,99631.76
2019-03-28T13:23:51.668Z,99636.36
2019-03-28T13:26:24.085Z,99632.84
2019-03-28T13:28:56.492Z,99636.23
2019-03-28T13:31:28.900Z,99629.64
2019-03-28T13:34:01.460Z,99627.05
2019-03-28T13:36:34.156Z,99617.59
2019-03-28T13:39:08.608Z,99622.36
2019-03-28T13:41:44.180Z,99612.36
2019-03-28T13:44:15.125Z,99617.28
2019-03-28T13:46:58.789Z,99614.82
2019-03-28T13:49:31.195Z,99613.20
2019-03-28T13:52:04.575Z,99609.31
2019-03-28T13:54:36.975Z,99607.57
2019-03-28T13:57:09.367Z,99614.03
2019-03-28T13:59:41.768Z,99608.66
2019-03-28T14:02:14.206Z,99615.06
2019-03-28T14:04:46.589Z,99614.35
2019-03-28T14:07:19.026Z,99613.37
2019-03-28T14:09:51.494Z,99606.22
2019-03-28T14:12:23.922Z,99617.50
2019-03-28T14:14:56.341Z,99608.20
2019-03-28T14:17:28.848Z,99613.37
2019-03-28T14:20:01.228Z,99610.27
2019-03-28T14:22:33.764Z,99614.09
2019-03-28T14:25:06.223Z,99613.27
2019-03-28T14:27:38.574Z,99611.67
2019-03-28T14:30:12.234Z,99612.01
2019-03-28T14:32:53.185Z,99612.53
2019-03-28T14:35:18.756Z,99612.73
2019-03-28T14:37:51.187Z,99612.34
2019-03-28T14:40:23.600Z,99625.51
2019-03-28T14:42:56.035Z,99617.12
2019-03-28T14:45:28.554Z,99614.61
2019-03-28T14:48:01.033Z,99606.67
2019-03-28T14:50:39.121Z,99607.38
2019-03-28T14:53:11.540Z,99599.68
2019-03-28T14:55:44.119Z,99605.58
2019-03-28T14:58:16.523Z,99601.25
2019-03-28T15:00:53.508Z,99604.06
2019-03-28T15:03:27.208Z,99602.03
2019-03-28T15:06:00.183Z,99593.25
2019-03-28T15:08:32.727Z,99598.71
2019-03-28T15:11:06.205Z,99595.31
2019-03-28T15:13:40.466Z,99602.17
2019-03-28T15:16:12.746Z,99600.77
2019-03-28T15:18:45.324Z,99592.78
2019-03-28T15:21:17.842Z,99600.52
2019-03-28T15:23:50.351Z,99605.33
2019-03-28T15:26:23.846Z,99601.57
2019-03-28T15:28:56.244Z,99602.70
2019-03-28T15:31:28.715Z,99599.20
2019-03-28T15:34:01.220Z,99599.59
2019-03-28T15:36:33.681Z,99604.45
2019-03-28T15:39:17.917Z,99596.13
2019-03-28T15:41:50.388Z,99601.22
2019-03-28T15:44:22.861Z,99596.89
2019-03-28T15:46:55.282Z,99600.26
2019-03-28T15:49:27.896Z,99590.00
2019-03-28T15:52:03.069Z,99595.60
2019-03-28T15:54:34.588Z,99589.61
2019-03-28T15:57:07.149Z,99591.16
2019-03-28T15:59:39.544Z,99590.77
2019-03-28T16:02:11.944Z,99586.44
2019-03-28T16:04:44.353Z,99592.08
2019-03-28T16:07:16.784Z,99589.65
2019-03-28T16:09:49.307Z,99594.27
2019-03-28T16:12:21.756Z,99592.17
2019-03-28T16:14:54.146Z,99590.86
2019-03-28T16:17:26.672Z,99591.25
2019-03-28T16:20:00.897Z,99587.66
2019-03-28T16:22:33.375Z,99585.70
2019-03-28T16:25:05.882Z,99587.68
2019-03-28T16:27:39.377Z,99580.16
2019-03-28T16:30:13.687Z,99586.29
2019-03-28T16:32:46.201Z,99588.45
2019-03-28T16:35:21.177Z,99589.36
2019-03-28T16:37:53.759Z,99596.05
2019-03-28T16:40:26.440Z,99591.15
2019-03-28T16:42:58.895Z,99592.38
2019-03-28T16:45:31.342Z,99586.38
2019-03-28T16:48:04.854Z,99588.89
2019-03-28T16:50:37.257Z,99592.05
2019-03-28T16:53:09.933Z,99592.53
2019-03-28T16:55:42.677Z,99589.43
2019-03-28T16:58:15.090Z,99586.42
2019-03-28T17:00:47.543Z,99594.00
2019-03-28T17:03:19.939Z,99589.02
2019-03-28T17:05:52.431Z,99595.58
2019-03-28T17:08:25.450Z,99591.73
2019-03-28T17:10:58.010Z,99596.20
2019-03-28T17:13:30.493Z,99590.78
2019-03-28T17:16:02.907Z,99589.61
2019-03-28T17:18:35.394Z,99590.71
2019-03-28T17:21:07.824Z,99594.61
2019-03-28T17:23:40.274Z,99594.52
2019-03-28T17:26:12.669Z,99590.67
2019-03-28T17:28:45.256Z,99586.70
2019-03-28T17:31:18.873Z,99592.11
2019-03-28T17:33:51.459Z,99599.92
2019-03-28T17:36:26.733Z,99610.59
2019-03-28T17:38:58.013Z,99606.88
2019-03-28T17:41:31.716Z,99606.83
2019-03-28T17:44:04.537Z,99604.37
2019-03-28T17:46:36.995Z,99609.26
2019-03-28T17:49:09.547Z,99607.55
2019-03-28T17:51:42.040Z,99607.72
2019-03-28T17:54:14.433Z,99612.88
2019-03-28T17:56:47.678Z,99618.79
2019-03-28T17:59:20.531Z,99617.30
2019-03-28T18:01:52.933Z,99624.28
2019-03-28T18:04:25.465Z,99617.16
2019-03-28T18:06:57.918Z,99615.52
2019-03-28T18:09:30.372Z,99620.75
2019-03-28T18:12:02.773Z,99620.84
2019-03-28T18:14:35.195Z,99621.36
2019-03-28T18:17:07.597Z,99627.00
2019-03-28T18:19:40.022Z,99627.58
2019-03-28T18:22:12.479Z,99635.98
2019-03-28T18:24:44.977Z,99637.29
2019-03-28T18:27:17.647Z,99639.34
2019-03-28T18:29:51.123Z,99644.81
2019-03-28T18:32:23.539Z,99652.34
2019-03-28T18:35:05.074Z,99652.67
2019-03-28T18:37:30.196Z,99654.66
2019-03-28T18:40:04.482Z,99658.05
2019-03-28T18:42:36.678Z,99656.46
2019-03-28T18:45:12.743Z,99660.13
2019-03-28T18:47:47.063Z,99655.66
2019-03-28T18:50:19.984Z,99663.69
2019-03-28T18:52:52.371Z,99661.11
2019-03-28T18:55:24.861Z,99656.23
2019-03-28T18:57:57.308Z,99660.41
2019-03-28T19:00:30.855Z,99665.48
2019-03-28T19:03:03.278Z,99661.51
2019-03-28T19:05:35.656Z,99665.12
2019-03-28T19:08:08.091Z,99663.10
2019-03-28T19:10:40.520Z,99666.51
2019-03-28T19:13:13.849Z,99662.84
2019-03-28T19:15:46.476Z,99662.78
2019-03-28T19:18:18.864Z,99672.98
2019-03-28T19:20:51.445Z,99673.73
2019-03-28T19:23:24.754Z,99673.17
2019-03-28T19:25:57.465Z,99673.48
2019-03-28T19:28:29.809Z,99674.24
2019-03-28T19:31:02.363Z,99672.41
2019-03-28T19:33:38.015Z,99663.56
2019-03-28T19:36:09.122Z,99674.56
2019-03-28T19:38:43.229Z,99670.27
2019-03-28T19:41:15.694Z,99671.91
2019-03-28T19:43:48.181Z,99674.45
2019-03-28T19:46:20.677Z,99680.13
2019-03-28T19:48:53.121Z,99675.36
2019-03-28T19:51:28.242Z,99676.27
2019-03-28T19:53:59.730Z,99674.20
2019-03-28T19:56:32.215Z,99675.40
2019-03-28T19:59:04.696Z,99671.59
2019-03-28T20:01:37.155Z,99666.75
2019-03-28T20:04:09.535Z,99670.80
2019-03-28T20:06:42.067Z,99663.66
2019-03-28T20:09:16.535Z,99660.97
2019-03-28T20:11:48.609Z,99674.52
2019-03-28T20:14:21.012Z,99669.08
2019-03-28T20:16:53.612Z,99669.23
2019-03-28T20:19:26.039Z,99667.31
2019-03-28T20:21:59.723Z,99669.01
2019-03-28T20:24:32.299Z,99664.84
2019-03-28T20:27:04.783Z,99659.55
2019-03-28T20:29:39.988Z,99666.62
2019-03-28T20:32:11.948Z,99662.23
2019-03-28T20:34:48.927Z,99663.77
2019-03-28T20:37:20.340Z,99666.13
2019-03-28T20:39:52.803Z,99661.81
2019-03-28T20:42:25.343Z,99661.38
2019-03-28T20:44:57.780Z,99668.27
2019-03-28T20:47:30.231Z,99669.29
2019-03-28T20:50:02.657Z,99671.58
2019-03-28T20:52:36.190Z,99670.59
2019-03-28T20:55:08.931Z,99668.74
2019-03-28T20:57:41.534Z,99670.89
2019-03-28T21:00:16.435Z,99671.36
2019-03-28T21:02:49.037Z,99675.13
2019-03-28T21:05:21.694Z,99663.19
2019-03-28T21:07:54.160Z,99664.89
2019-03-28T21:10:27.390Z,99662.83
2019-03-28T21:12:59.784Z,99664.82
2019-03-28T21:15:32.278Z,99659.52
2019-03-28T21:18:04.762Z,99657.73
2019-03-28T21:20:37.181Z,99654.69
2019-03-28T21:23:09.609Z,99649.53
2019-03-28T21:25:42.073Z,99656.14
2019-03-28T21:28:14.515Z,99655.20
2019-03-28T21:30:47.949Z,99656.16
2019-03-28T21:33:21.064Z,99644.94
2019-03-28T21:35:53.515Z,99649.91
2019-03-28T21:38:25.977Z,99650.31
2019-03-28T21:40:59.685Z,99647.70
2019-03-28T21:43:32.490Z,99645.74
2019-03-28T21:46:04.931Z,99643.56
2019-03-28T21:48:37.501Z,99643.95
2019-03-28T21:51:11.588Z,99646.41
2019-03-28T21:53:44.278Z,99644.63
2019-03-28T21:56:16.887Z,99650.64
2019-03-28T21:58:49.532Z,99645.55
2019-03-28T22:01:21.970Z,99648.84
2019-03-28T22:03:54.415Z,99644.51
2019-03-28T22:06:26.874Z,99647.46
2019-03-28T22:08:59.302Z,99639.00
2019-03-28T22:11:31.857Z,99645.23
2019-03-28T22:14:04.316Z,99640.48
2019-03-28T22:16:36.729Z,99643.59
2019-03-28T22:19:10.289Z,99645.06
2019-03-28T22:21:42.688Z,99647.53
2019-03-28T22:24:15.265Z,99647.45
2019-03-28T22:26:47.703Z,99645.44
2019-03-28T22:29:20.848Z,99638.84
2019-03-28T22:31:53.522Z,99639.44
2019-03-28T22:34:26.012Z,99642.17
2019-03-28T22:37:00.006Z,99642.83
2019-03-28T22:39:32.753Z,99645.34
2019-03-28T22:42:05.276Z,99647.43
2019-03-28T22:44:37.727Z,99644.91
2019-03-28T22:47:10.130Z,99644.39
2019-03-28T22:49:42.605Z,99646.66
2019-03-28T22:52:15.021Z,99638.31
2019-03-28T22:54:47.414Z,99642.52
2019-03-28T22:57:19.840Z,99648.85
2019-03-28T22:59:52.927Z,99639.39
2019-03-28T23:02:25.535Z,99638.73
2019-03-28T23:04:57.943Z,99639.81
2019-03-28T23:07:30.424Z,99641.23
2019-03-28T23:10:02.866Z,99639.34
2019-03-28T23:12:35.423Z,99636.51
2019-03-28T23:15:09.039Z,99639.98
2019-03-28T23:17:41.434Z,99635.49
2019-03-28T23:20:14.144Z,99641.84
2019-03-28T23:22:46.609Z,99632.37
2019-03-28T23:25:19.083Z,99632.37
2019-03-28T23:27:52.724Z,99628.97
2019-03-28T23:30:25.240Z,99626.42
2019-03-28T23:32:57.815Z,99621.91
2019-03-28T23:35:30.286Z,99621.06
2019-03-28T23:38:02.683Z,99610.77
2019-03-28T23:40:35.114Z,99613.48
2019-03-28T23:43:07.517Z,99615.25
2019-03-28T23:45:39.967Z,99611.36
2019-03-28T23:48:12.652Z,99614.33
2019-03-28T23:50:45.182Z,99609.52
2019-03-28T23:53:17.615Z,99601.10
2019-03-28T23:55:50.022Z,99604.81
2019-03-28T23:58:22.543Z,99607.36
